Time;durP1;ratioP1;P1;durP2;ratioP2;P2;SDS_P1;SDS_P2;PMS_P1;PMS_P2;Temp;Humidity;BMP_temperature;BMP_pressure;BME280_temperature;BME280_humidity;BME280_pressure;Samples;Min_cycle;Max_cycle;Signal;HPM_P1;HPM_P2
2024/03/19 00:00:50;;;;;;;31.00;10.18;;;;;;;-145.63;56.04;39292.19;5135392;27;20027;-64
2024/03/19 00:03:16;;;;;;;33.33;10.18;;;;;;;-145.63;56.11;39311.72;5135701;27;20023;-64
2024/03/19 00:05:42;;;;;;;35.20;10.77;;;;;;;-145.63;56.10;39319.56;5131151;27;20027;-64
2024/03/19 00:08:08;;;;;;;35.05;10.00;;;;;;;-145.63;56.00;39266.75;5119131;27;20024;-63
2024/03/19 00:10:34;;;;;;;30.75;8.95;;;;;;;-145.63;55.78;39298.03;5117531;27;20028;-64
2024/03/19 00:13:00;;;;;;;33.38;10.98;;;;;;;-145.63;55.70;39313.69;5129651;27;20023;-63
2024/03/19 00:15:25;;;;;;;31.88;10.40;;;;;;;-145.63;55.93;39315.66;5129823;27;20035;-64
2024/03/19 00:17:54;;;;;;;25.25;10.15;;;;;;;-145.63;55.90;39325.41;5132238;27;20050;-64
2024/03/19 00:20:21;;;;;;;26.08;10.13;;;;;;;-145.63;55.64;39292.19;5123323;27;20039;-65
2024/03/19 00:22:47;;;;;;;34.88;11.00;;;;;;;-145.63;55.96;39278.47;5126555;27;20500;-63
2024/03/19 00:25:13;;;;;;;30.50;11.02;;;;;;;-145.63;56.07;39307.81;5119686;27;20035;-64
2024/03/19 00:27:38;;;;;;;30.58;11.13;;;;;;;-145.63;55.91;39317.59;5126894;27;20096;-64
2024/03/19 00:30:08;;;;;;;32.92;11.50;;;;;;;-145.63;55.91;39282.41;5128495;27;20496;-64
2024/03/19 00:32:34;;;;;;;31.10;9.55;;;;;;;-145.63;56.34;39282.41;5101105;27;20359;-64
2024/03/19 00:34:59;;;;;;;39.58;11.10;;;;;;;-145.63;56.26;39305.88;5128893;27;20031;-64
2024/03/19 00:37:27;;;;;;;22.05;9.95;;;;;;;-145.63;56.18;39290.22;5123137;27;20039;-63
2024/03/19 00:39:53;;;;;;;37.92;11.38;;;;;;;-145.63;56.01;39427.13;5120242;27;20026;-64
2024/03/19 00:42:18;;;;;;;31.52;11.07;;;;;;;-145.63;56.03;39368.44;5125158;27;20023;-64
2024/03/19 00:44:44;;;;;;;37.88;10.40;;;;;;;-145.63;56.02;39280.44;5114820;27;20363;-64
2024/03/19 00:47:10;;;;;;;33.22;10.27;;;;;;;-145.63;56.76;39300.00;5119787;27;20480;-63
2024/03/19 00:49:36;;;;;;;30.23;10.68;;;;;;;-145.63;56.76;39307.81;5122294;27;20031;-63
2024/03/19 00:52:03;;;;;;;26.88;9.88;;;;;;;-145.63;56.57;39301.94;5116248;27;20046;-64
2024/03/19 00:54:29;;;;;;;33.42;10.40;;;;;;;-145.63;56.82;39280.44;5127792;27;20032;-64
2024/03/19 00:56:55;;;;;;;32.28;10.27;;;;;;;-145.63;56.72;39309.78;5125867;27;20030;-63
2024/03/19 00:59:21;;;;;;;30.35;10.45;;;;;;;-145.63;56.88;39300.00;5117300;27;20027;-65
2024/03/19 01:01:46;;;;;;;29.02;10.32;;;;;;;-145.63;57.07;39301.94;5127342;27;20027;-64
2024/03/19 01:04:13;;;;;;;36.78;11.25;;;;;;;-145.63;56.94;39280.44;5119481;27;20459;-64
2024/03/19 01:06:39;;;;;;;27.10;9.40;;;;;;;-145.63;57.11;39274.56;5120424;27;20128;-64
2024/03/19 01:09:05;;;;;;;26.55;11.82;;;;;;;-145.63;56.87;39296.09;5118869;27;20023;-64
2024/03/19 01:11:32;;;;;;;34.35;10.52;;;;;;;-145.63;56.98;39315.66;5118873;27;20058;-63
2024/03/19 01:13:59;;;;;;;31.17;10.52;;;;;;;-145.63;56.86;39315.66;5113601;28;20031;-65
2024/03/19 01:16:25;;;;;;;31.92;11.15;;;;;;;-145.63;57.16;39313.69;5113917;28;20039;-64
2024/03/19 01:18:51;;;;;;;30.67;10.77;;;;;;;-145.63;56.88;39305.88;5095146;28;20157;-63
2024/03/19 01:21:16;;;;;;;33.20;10.77;;;;;;;-145.63;57.15;39307.81;5129782;27;20118;-64
2024/03/19 01:23:44;;;;;;;33.65;10.88;;;;;;;-145.63;57.23;39296.09;5134436;27;20106;-64
2024/03/19 01:26:10;;;;;;;30.50;10.50;;;;;;;-145.63;56.95;39282.41;5127535;27;20074;-64
2024/03/19 01:28:36;;;;;;;29.83;10.13;;;;;;;-145.63;56.94;39262.84;5115429;27;20059;-64
2024/03/19 01:31:02;;;;;;;26.67;10.93;;;;;;;-145.63;56.93;39294.13;5129580;27;20031;-65
2024/03/19 01:33:27;;;;;;;27.60;10.43;;;;;;;-145.63;56.66;39286.31;5130653;27;20490;-64
2024/03/19 01:35:53;;;;;;;26.13;10.32;;;;;;;-145.63;56.66;39282.41;5121057;27;20026;-63
2024/03/19 01:38:23;;;;;;;31.92;11.05;;;;;;;-145.63;56.31;39301.94;5099327;28;20035;-64
2024/03/19 01:40:50;;;;;;;21.40;9.75;;;;;;;-145.63;56.47;39286.31;5124868;27;20054;-64
2024/03/19 01:43:20;;;;;;;33.65;10.20;;;;;;;-145.63;56.36;39298.03;5113494;28;20023;-63
2024/03/19 01:46:20;;;;;;;29.23;10.23;;;;;;;-145.63;56.33;39292.19;5133139;27;20086;-64
2024/03/19 01:48:48;;;;;;;26.27;11.23;;;;;;;-145.63;56.41;39286.31;5133498;27;20037;-63
2024/03/19 01:51:17;;;;;;;34.25;12.07;;;;;;;-145.63;56.34;39333.25;5118042;27;20023;-63
2024/03/19 01:53:43;;;;;;;29.00;10.55;;;;;;;-145.63;56.30;39294.13;5124246;27;20088;-63
2024/03/19 01:56:10;;;;;;;33.10;10.77;;;;;;;-145.63;57.19;39282.41;5127276;27;20036;-64
2024/03/19 01:58:36;;;;;;;27.08;11.73;;;;;;;-145.63;57.59;39313.69;5095981;27;20084;-65
2024/03/19 02:01:01;;;;;;;28.70;10.95;;;;;;;-145.63;57.66;39296.09;5117076;27;20023;-66
2024/03/19 02:03:28;;;;;;;26.63;11.30;;;;;;;-145.63;57.38;39294.13;5094663;28;20035;-65
2024/03/19 02:05:54;;;;;;;27.30;10.63;;;;;;;-145.63;57.26;39282.41;5125233;27;20027;-64
2024/03/19 02:08:20;;;;;;;24.23;10.18;;;;;;;-145.63;57.51;39309.78;5133461;27;20023;-64
2024/03/19 02:10:47;;;;;;;24.58;10.40;;;;;;;-145.63;57.79;39286.31;5133154;27;20031;-65
2024/03/19 02:13:16;;;;;;;22.38;10.52;;;;;;;-145.63;57.93;39286.31;5133623;27;20142;-65
2024/03/19 02:15:42;;;;;;;32.10;11.85;;;;;;;-145.63;57.66;39280.44;5114048;28;20099;-65
2024/03/19 02:18:08;;;;;;;30.05;11.20;;;;;;;-145.63;57.23;39298.03;5112766;28;20036;-66
2024/03/19 02:20:34;;;;;;;24.02;11.10;;;;;;;-145.63;56.79;39296.09;5122254;27;20035;-66
2024/03/19 02:23:00;;;;;;;25.65;11.05;;;;;;;-145.63;56.36;39301.94;5128311;28;20047;-65
2024/03/19 02:25:26;;;;;;;23.92;11.00;;;;;;;-145.63;57.22;39296.09;5112729;28;20032;-65
2024/03/19 02:27:51;;;;;;;23.17;10.95;;;;;;;-145.63;57.97;39292.19;5133025;28;20379;-65
2024/03/19 02:30:17;;;;;;;23.02;10.82;;;;;;;-145.63;58.29;39282.41;5117621;28;20024;-66
2024/03/19 02:32:43;;;;;;;20.30;11.13;;;;;;;-145.63;58.09;39292.19;5104971;28;20084;-65
2024/03/19 02:35:09;;;;;;;26.52;10.77;;;;;;;-145.63;58.34;39288.25;5132218;28;20510;-65
2024/03/19 02:37:34;;;;;;;31.50;10.98;;;;;;;-145.63;57.67;39317.59;5132299;28;20088;-66
2024/03/19 02:40:00;;;;;;;27.92;12.30;;;;;;;-145.63;58.02;39260.88;5112465;28;20448;-66
2024/03/19 02:42:26;;;;;;;28.60;10.82;;;;;;;-145.63;57.78;39290.22;5112343;28;20028;-66
2024/03/19 02:44:52;;;;;;;19.55;10.85;;;;;;;-145.63;57.80;39298.03;5126318;27;20046;-65
2024/03/19 02:47:18;;;;;;;29.35;12.88;;;;;;;-145.63;57.79;39323.47;5130124;27;20030;-65
2024/03/19 02:49:44;;;;;;;28.98;11.63;;;;;;;-145.63;57.87;39307.81;5117670;27;20119;-65
2024/03/19 02:52:10;;;;;;;27.50;12.60;;;;;;;-145.63;57.49;39266.75;5116650;28;20035;-65
2024/03/19 02:54:37;;;;;;;30.75;12.98;;;;;;;-145.63;57.26;39274.56;5134715;27;20068;-64
2024/03/19 02:57:03;;;;;;;30.75;13.05;;;;;;;-145.63;57.08;39282.41;5123539;27;20027;-64
2024/03/19 02:59:29;;;;;;;27.27;12.82;;;;;;;-145.63;57.22;39288.25;5121340;27;20042;-65
2024/03/19 03:01:56;;;;;;;32.03;13.38;;;;;;;-145.63;57.46;39290.22;5136655;27;20390;-65
2024/03/19 03:04:22;;;;;;;29.60;13.43;;;;;;;-145.63;57.23;39278.47;5137198;27;20031;-64
2024/03/19 03:06:49;;;;;;;27.35;12.45;;;;;;;-145.63;57.41;39296.09;5136662;27;20023;-64
2024/03/19 03:09:14;;;;;;;23.67;11.90;;;;;;;-145.63;57.30;39307.81;5122122;27;20039;-64
2024/03/19 03:11:40;;;;;;;31.73;12.35;;;;;;;-145.63;57.20;39309.78;5142316;27;20110;-64
2024/03/19 03:14:06;;;;;;;24.38;12.73;;;;;;;-145.63;57.55;39301.94;5131662;27;20032;-63
2024/03/19 03:16:31;;;;;;;28.63;13.35;;;;;;;-145.63;57.43;39311.72;5116103;28;20069;-66
2024/03/19 03:18:57;;;;;;;26.55;12.13;;;;;;;-145.63;58.45;39300.00;5115379;27;20710;-65
2024/03/19 03:21:22;;;;;;;27.88;13.63;;;;;;;-145.63;57.52;39307.81;5125813;27;20031;-64
2024/03/19 03:23:48;;;;;;;28.38;12.57;;;;;;;-145.63;57.36;39305.88;5126561;27;20410;-64
2024/03/19 03:26:14;;;;;;;29.60;13.18;;;;;;;-145.63;57.18;39307.81;5130522;27;20044;-65
2024/03/19 03:28:40;;;;;;;28.02;13.73;;;;;;;-145.63;57.35;39307.81;5117116;27;20034;-64
2024/03/19 03:31:06;;;;;;;32.47;13.25;;;;;;;-145.63;57.71;39290.22;5136200;27;20115;-63
2024/03/19 03:33:31;;;;;;;28.48;14.45;;;;;;;-145.63;57.42;39288.25;5119333;27;20452;-64
2024/03/19 03:36:00;;;;;;;33.72;14.38;;;;;;;-145.63;57.66;39274.56;5109090;27;20035;-64
2024/03/19 03:38:26;;;;;;;32.55;13.05;;;;;;;-145.63;57.61;39288.25;5128613;27;20123;-64
2024/03/19 03:40:55;;;;;;;29.60;12.45;;;;;;;-145.63;58.13;39120.06;5117933;27;20107;-65
2024/03/19 03:43:21;;;;;;;33.13;13.20;;;;;;;-145.63;57.98;39270.66;5136023;27;20027;-64
2024/03/19 03:45:49;;;;;;;29.73;12.90;;;;;;;-145.63;57.91;39290.22;5116849;27;20081;-65
2024/03/19 03:48:15;;;;;;;28.95;12.88;;;;;;;-145.63;58.06;39292.19;5129918;27;20348;-65
2024/03/19 03:50:41;;;;;;;32.03;13.65;;;;;;;-145.63;58.37;39290.22;5126163;27;20116;-66
2024/03/19 03:53:07;;;;;;;28.02;12.80;;;;;;;-145.63;58.21;39294.13;5120217;27;20064;-64
2024/03/19 03:55:34;;;;;;;26.60;12.13;;;;;;;-145.63;58.89;39280.44;5135128;27;20141;-65
2024/03/19 03:58:00;;;;;;;26.42;11.65;;;;;;;-145.63;58.24;39303.91;5129976;27;20027;-65
2024/03/19 04:00:27;;;;;;;24.95;11.70;;;;;;;-145.63;58.40;39305.88;5124546;27;20455;-65
2024/03/19 04:02:53;;;;;;;26.17;13.10;;;;;;;-145.63;58.41;39045.75;5135208;27;20035;-65
2024/03/19 04:05:18;;;;;;;29.98;12.23;;;;;;;-145.63;58.13;39286.31;5129319;27;20024;-64
2024/03/19 04:07:44;;;;;;;27.42;11.77;;;;;;;-145.63;58.26;39286.31;5116573;27;20573;-65
2024/03/19 04:10:12;;;;;;;25.42;12.82;;;;;;;-145.63;58.09;39276.53;5135430;27;20023;-65
2024/03/19 04:12:38;;;;;;;26.67;13.00;;;;;;;-145.63;58.08;39300.00;5118119;27;20028;-66
2024/03/19 04:15:06;;;;;;;26.40;13.65;;;;;;;-145.63;58.40;39286.31;5127690;27;20019;-65
2024/03/19 04:17:35;;;;;;;29.83;14.02;;;;;;;-145.63;58.30;39294.13;5127446;27;20019;-66
2024/03/19 04:20:05;;;;;;;27.75;12.95;;;;;;;-145.63;58.28;39282.41;5118450;27;20038;-67
2024/03/19 04:22:34;;;;;;;31.37;13.47;;;;;;;-145.63;58.41;39343.03;5135285;27;20035;-65
2024/03/19 04:25:00;;;;;;;29.08;12.65;;;;;;;-145.63;58.41;39321.50;5114363;28;20443;-65
2024/03/19 04:27:26;;;;;;;32.58;13.45;;;;;;;-145.63;58.22;39303.91;5130481;27;20337;-65
2024/03/19 04:29:51;;;;;;;32.47;13.32;;;;;;;-145.63;58.36;39274.56;5124179;27;20042;-65
2024/03/19 04:32:17;;;;;;;31.08;15.02;;;;;;;-145.63;58.38;39301.94;5120478;27;20027;-64
2024/03/19 04:34:43;;;;;;;31.85;13.20;;;;;;;-145.63;58.22;39280.44;5133971;27;20038;-64
2024/03/19 04:37:08;;;;;;;30.95;13.90;;;;;;;-145.63;58.30;39303.91;5114491;28;20043;-63
2024/03/19 04:39:34;;;;;;;34.65;14.52;;;;;;;-145.63;57.88;39288.25;5131095;27;20528;-65
2024/03/19 04:42:00;;;;;;;33.22;14.30;;;;;;;-145.63;57.94;39276.53;5123033;27;20046;-64
2024/03/19 04:44:25;;;;;;;27.73;13.55;;;;;;;-145.63;57.70;39307.81;5120906;27;20035;-65
2024/03/19 04:46:52;;;;;;;29.35;13.93;;;;;;;-145.63;57.51;39288.25;5132477;27;20027;-62
2024/03/19 04:49:17;;;;;;;33.47;15.52;;;;;;;-145.63;57.11;39282.41;5095851;28;20038;-62
2024/03/19 04:51:43;;;;;;;35.50;14.07;;;;;;;-145.63;57.17;39301.94;5114333;28;20031;-63
2024/03/19 04:54:08;;;;;;;37.65;15.45;;;;;;;-145.63;57.06;39284.34;5126692;27;20035;-62
2024/03/19 04:56:34;;;;;;;36.88;14.23;;;;;;;-145.63;57.19;39294.13;5126771;27;20371;-63
2024/03/19 04:59:00;;;;;;;31.83;14.60;;;;;;;-145.63;57.71;39282.41;5116885;27;20083;-64
2024/03/19 05:01:27;;;;;;;36.53;16.05;;;;;;;-145.63;58.15;39321.50;5134556;27;20023;-64
2024/03/19 05:03:54;;;;;;;35.03;15.07;;;;;;;-145.63;57.57;39268.72;5134322;27;20027;-66
2024/03/19 05:06:19;;;;;;;34.08;14.95;;;;;;;-145.63;58.29;39282.41;5119690;27;20122;-64
2024/03/19 05:08:45;;;;;;;36.88;15.65;;;;;;;-145.63;58.16;39270.66;5113788;28;20424;-63
2024/03/19 05:11:10;;;;;;;36.72;15.50;;;;;;;-145.63;58.27;39274.56;5114494;27;20035;-63
2024/03/19 05:13:37;;;;;;;32.47;15.40;;;;;;;-145.63;58.24;39313.69;5121254;27;20027;-64
2024/03/19 05:16:03;;;;;;;34.38;15.05;;;;;;;-145.63;58.13;39284.34;5113573;28;20027;-65
2024/03/19 05:18:29;;;;;;;30.73;14.85;;;;;;;-145.63;57.63;39294.13;5129664;27;20188;-66
2024/03/19 05:20:54;;;;;;;38.25;16.05;;;;;;;-145.63;57.76;39317.59;5087687;28;20027;-64
2024/03/19 05:23:20;;;;;;;41.28;15.48;;;;;;;-145.63;57.45;39290.22;5119448;27;20082;-63
2024/03/19 05:25:46;;;;;;;33.33;15.75;;;;;;;-145.63;57.73;39294.13;5133261;27;20043;-65
2024/03/19 05:28:12;;;;;;;43.78;15.60;;;;;;;-145.63;57.93;39282.41;5113468;28;20063;-64
2024/03/19 05:30:38;;;;;;;32.83;15.80;;;;;;;-145.63;57.75;39323.47;5130434;27;20066;-65
2024/03/19 05:33:04;;;;;;;36.33;15.60;;;;;;;-145.63;57.83;39276.53;5121668;27;20038;-64
2024/03/19 05:35:29;;;;;;;39.85;16.75;;;;;;;-145.63;58.25;39294.13;5120676;27;20080;-64
2024/03/19 05:37:55;;;;;;;35.92;15.77;;;;;;;-145.63;57.92;39274.56;5134044;27;20429;-65
2024/03/19 05:40:21;;;;;;;34.28;15.32;;;;;;;-145.63;59.13;39266.75;5115459;27;20030;-64
2024/03/19 05:42:47;;;;;;;32.15;15.63;;;;;;;-145.63;58.81;39290.22;5119033;27;20070;-62
2024/03/19 05:45:13;;;;;;;36.83;16.58;;;;;;;-145.63;58.55;39341.06;5113105;28;20031;-62
2024/03/19 05:47:40;;;;;;;43.80;16.52;;;;;;;-145.63;58.35;39305.88;5121150;27;20042;-62
2024/03/19 05:50:09;;;;;;;38.78;15.55;;;;;;;-145.63;58.28;39300.00;5132971;27;20110;-63
2024/03/19 05:52:38;;;;;;;35.05;15.60;;;;;;;-145.63;58.17;39321.50;5113095;27;20111;-63
2024/03/19 05:55:04;;;;;;;39.75;17.00;;;;;;;-145.63;58.34;39313.69;5133104;27;20019;-62
2024/03/19 05:57:30;;;;;;;37.88;16.40;;;;;;;-145.63;57.91;39300.00;5117971;27;20102;-63
2024/03/19 05:59:55;;;;;;;34.78;15.68;;;;;;;-145.63;58.06;39280.44;5112576;28;20106;-62
2024/03/19 06:02:21;;;;;;;34.90;16.73;;;;;;;-145.63;57.74;39282.41;5113237;28;20040;-64
2024/03/19 06:04:47;;;;;;;34.67;15.82;;;;;;;-145.63;58.36;39337.16;5141599;27;20023;-63
2024/03/19 06:07:13;;;;;;;35.55;16.80;;;;;;;-145.63;58.26;39301.94;5098150;27;20027;-61
2024/03/19 06:09:43;;;;;;;28.20;14.93;;;;;;;-145.63;58.72;39309.78;5117189;27;20070;-62
2024/03/19 06:12:12;;;;;;;35.50;15.40;;;;;;;-145.63;58.22;39321.50;5125024;27;20075;-62
2024/03/19 06:14:39;;;;;;;43.05;15.32;;;;;;;-145.63;58.34;39264.78;5125014;27;20031;-63
2024/03/19 06:17:06;;;;;;;37.20;15.85;;;;;;;-145.63;58.04;39313.69;5112698;28;20038;-62
2024/03/19 06:19:32;;;;;;;23.73;14.80;;;;;;;-145.63;58.07;39309.78;5112660;28;20027;-63
2024/03/19 06:21:58;;;;;;;36.35;14.52;;;;;;;-145.63;58.26;39260.88;5112631;28;20039;-64
2024/03/19 06:24:24;;;;;;;32.53;14.25;;;;;;;-145.63;58.14;39294.13;5126725;28;20039;-63
2024/03/19 06:26:49;;;;;;;32.50;14.57;;;;;;;-145.63;58.68;39258.94;5123636;28;20046;-61
2024/03/19 06:29:15;;;;;;;31.15;14.73;;;;;;;-145.63;58.51;39268.72;5117208;28;20501;-63
2024/03/19 06:31:41;;;;;;;33.17;16.00;;;;;;;-145.63;58.06;39243.28;5119554;28;20164;-63
2024/03/19 06:34:07;;;;;;;32.53;15.50;;;;;;;-145.63;58.20;39227.63;5109901;28;20423;-63
2024/03/19 06:36:33;;;;;;;34.80;15.98;;;;;;;-145.63;58.44;39235.47;5127924;28;20065;-62
2024/03/19 06:38:58;;;;;;;34.40;15.82;;;;;;;-145.63;58.26;39241.31;5122523;28;20067;-63
2024/03/19 06:41:25;;;;;;;32.00;15.63;;;;;;;-145.63;57.94;39255.00;5122315;28;20034;-62
2024/03/19 06:43:51;;;;;;;37.42;15.30;;;;;;;-145.63;58.16;39264.78;5112622;28;20028;-63
2024/03/19 06:46:17;;;;;;;31.58;15.40;;;;;;;-145.63;58.11;39243.28;5112590;28;20031;-63
2024/03/19 06:48:45;;;;;;;38.45;15.50;;;;;;;-145.63;58.01;39249.16;5129378;28;20059;-63
2024/03/19 06:51:13;;;;;;;32.00;15.05;;;;;;;-145.63;58.49;39245.25;5131690;28;20084;-64
2024/03/19 06:53:40;;;;;;;34.50;14.70;;;;;;;-145.63;58.47;39262.84;5125350;28;20031;-63
2024/03/19 06:56:07;;;;;;;39.15;16.38;;;;;;;-145.63;57.95;39251.09;5115161;28;20066;-63
2024/03/19 06:58:34;;;;;;;32.20;15.95;;;;;;;-145.63;57.54;39278.47;5132882;28;20036;-63
2024/03/19 07:01:01;;;;;;;35.53;16.38;;;;;;;-145.63;57.43;39251.09;5122681;28;20091;-64
2024/03/19 07:03:27;;;;;;;32.88;14.98;;;;;;;-145.63;57.74;39264.78;5112429;28;20425;-63
2024/03/19 07:05:54;;;;;;;31.40;15.45;;;;;;;-145.63;57.74;39268.72;5111959;28;20023;-63
2024/03/19 07:08:20;;;;;;;28.38;14.23;;;;;;;-145.63;57.30;39266.75;5112943;28;20039;-63
2024/03/19 07:10:47;;;;;;;24.55;13.63;;;;;;;-145.63;57.32;39249.16;5112357;28;20039;-63
2024/03/19 07:13:13;;;;;;;25.42;12.55;;;;;;;-145.63;57.18;39272.63;5111896;28;20403;-64
2024/03/19 07:15:38;;;;;;;29.38;12.90;;;;;;;-145.63;57.32;39245.25;5114198;28;20048;-64
2024/03/19 07:18:05;;;;;;;24.63;12.70;;;;;;;-145.63;57.37;39245.25;5123012;28;20114;-64
2024/03/19 07:20:31;;;;;;;29.48;13.43;;;;;;;-145.63;57.05;39391.91;5126428;28;20440;-63
2024/03/19 07:22:58;;;;;;;28.67;12.95;;;;;;;-145.63;57.47;39260.88;5113156;28;20093;-63
2024/03/19 07:25:24;;;;;;;24.42;12.55;;;;;;;-145.63;57.45;39243.28;5126439;28;20036;-62
2024/03/19 07:27:50;;;;;;;20.98;11.88;;;;;;;-145.63;57.31;39249.16;5132303;27;20451;-63
2024/03/19 07:30:17;;;;;;;22.30;12.27;;;;;;;-145.63;56.82;39264.78;5136380;27;20190;-63
2024/03/19 07:32:44;;;;;;;29.30;12.73;;;;;;;-145.63;57.25;39309.78;5128138;27;20035;-63
2024/03/19 07:35:10;;;;;;;25.00;13.30;;;;;;;-145.63;57.01;39268.72;5096838;28;20387;-63
2024/03/19 07:37:37;;;;;;;31.13;13.00;;;;;;;-145.63;57.44;39233.50;5116082;28;20039;-64
2024/03/19 07:40:09;;;;;;;27.08;12.25;;;;;;;-145.63;57.22;39264.78;5134612;27;20161;-64
2024/03/19 07:42:39;;;;;;;23.85;12.85;;;;;;;-145.63;57.44;39249.16;5121115;27;20023;-63
2024/03/19 07:45:06;;;;;;;27.60;13.40;;;;;;;-145.63;57.23;39247.19;5125984;27;20027;-64
2024/03/19 07:47:33;;;;;;;25.70;12.30;;;;;;;-145.63;56.45;39266.75;5135550;27;20115;-64
2024/03/19 07:49:59;;;;;;;21.95;11.48;;;;;;;-145.63;57.60;39231.53;5134239;27;20435;-63
2024/03/19 07:52:27;;;;;;;22.08;12.45;;;;;;;-145.63;57.46;39262.84;5136233;27;20031;-64
2024/03/19 07:54:53;;;;;;;23.55;12.90;;;;;;;-145.63;57.36;39067.28;5134956;27;20023;-66
2024/03/19 07:57:18;;;;;;;24.02;12.02;;;;;;;-145.63;56.95;39270.66;5123308;27;20077;-65
2024/03/19 07:59:44;;;;;;;26.63;11.93;;;;;;;-145.63;56.92;39243.28;5122961;27;20110;-64
2024/03/19 08:02:10;;;;;;;22.75;10.98;;;;;;;-145.63;57.19;39251.09;5116027;27;20168;-67
2024/03/19 08:04:35;;;;;;;23.52;12.10;;;;;;;-145.63;57.41;39264.78;5115271;28;20043;-64
2024/03/19 08:07:02;;;;;;;22.17;11.60;;;;;;;-145.63;57.39;39253.06;5133627;27;20114;-65
2024/03/19 08:09:28;;;;;;;20.70;11.52;;;;;;;-145.63;56.72;39264.78;5117596;27;20099;-65
2024/03/19 08:11:54;;;;;;;24.65;11.30;;;;;;;-145.63;56.68;39270.66;5126531;27;20452;-65
2024/03/19 08:14:20;;;;;;;28.85;12.30;;;;;;;-145.63;56.75;39243.28;5119067;27;20039;-65
2024/03/19 08:16:45;;;;;;;19.85;11.18;;;;;;;-145.63;56.75;39262.84;5135264;27;20057;-64
2024/03/19 08:19:12;;;;;;;19.10;11.07;;;;;;;-145.63;55.96;39337.16;5114833;28;20476;-64
2024/03/19 08:21:38;;;;;;;17.52;10.35;;;;;;;-145.63;56.01;39262.84;5130050;27;20034;-63
2024/03/19 08:24:04;;;;;;;19.60;10.68;;;;;;;-145.63;55.17;39260.88;5124907;27;20498;-65
2024/03/19 08:26:33;;;;;;;19.35;10.55;;;;;;;-145.63;54.59;39280.44;5120149;27;20035;-64
2024/03/19 08:29:01;;;;;;;18.98;10.18;;;;;;;-145.63;55.24;39266.75;5134142;27;20082;-65
2024/03/19 08:31:27;;;;;;;24.08;10.57;;;;;;;-145.63;55.20;39278.47;5114985;28;20063;-63
2024/03/19 08:33:53;;;;;;;18.50;10.60;;;;;;;-145.63;56.13;39251.09;5131783;27;20418;-64
2024/03/19 08:36:18;;;;;;;19.45;9.60;;;;;;;-145.63;55.38;39255.00;5128892;27;20031;-64
2024/03/19 08:38:44;;;;;;;19.00;10.20;;;;;;;-145.63;55.08;39270.66;5135289;27;20375;-64
2024/03/19 08:41:09;;;;;;;19.95;10.38;;;;;;;-145.63;55.78;39239.38;5134163;27;20113;-65
2024/03/19 08:43:35;;;;;;;17.48;9.40;;;;;;;-145.63;55.95;39288.25;5135164;27;20040;-65
2024/03/19 08:46:01;;;;;;;16.77;10.27;;;;;;;-145.63;55.94;39258.94;5124098;27;20058;-65
2024/03/19 08:48:27;;;;;;;15.63;9.57;;;;;;;-145.63;56.34;39241.31;5121485;27;20051;-65
2024/03/19 08:50:53;;;;;;;20.02;10.30;;;;;;;-145.63;56.22;39256.97;5126636;27;20027;-66
2024/03/19 08:53:18;;;;;;;18.85;10.00;;;;;;;-145.63;55.99;39266.75;5126866;27;20023;-64
2024/03/19 08:55:54;;;;;;;18.70;9.93;;;;;;;-145.63;56.66;39262.84;5114265;28;20478;-64
2024/03/19 08:58:20;;;;;;;19.55;9.95;;;;;;;-145.63;55.49;39274.56;5114277;28;20047;-64
2024/03/19 09:00:45;;;;;;;14.68;9.18;;;;;;;-145.63;55.78;39241.31;5129454;27;20079;-64
2024/03/19 09:03:11;;;;;;;19.75;10.10;;;;;;;-145.63;55.42;39272.63;5126720;27;20059;-65
2024/03/19 09:05:36;;;;;;;16.10;9.73;;;;;;;-145.63;55.20;39274.56;5113600;28;20027;-63
2024/03/19 09:08:02;;;;;;;21.08;10.35;;;;;;;-145.63;55.20;39260.88;5114641;27;20034;-64
2024/03/19 09:10:28;;;;;;;16.88;9.40;;;;;;;-145.63;54.53;39255.00;5134370;27;20451;-64
2024/03/19 09:12:53;;;;;;;22.75;10.55;;;;;;;-145.63;54.86;39245.25;5116990;27;20080;-64
2024/03/19 09:15:19;;;;;;;21.40;10.70;;;;;;;-145.63;55.09;39258.94;5125640;27;20031;-63
2024/03/19 09:17:45;;;;;;;15.50;9.50;;;;;;;-145.63;54.59;39262.84;5126990;27;20376;-63
2024/03/19 09:20:11;;;;;;;14.55;9.18;;;;;;;-145.63;55.24;39258.94;5097025;27;20031;-64
2024/03/19 09:22:37;;;;;;;17.23;9.65;;;;;;;-145.63;54.91;39262.84;5133969;27;20130;-64
2024/03/19 09:25:03;;;;;;;17.13;9.77;;;;;;;-145.63;54.29;39278.47;5116049;27;20107;-64
2024/03/19 09:27:30;;;;;;;18.20;9.68;;;;;;;-145.63;53.62;39300.00;5133421;27;20416;-64
2024/03/19 09:29:55;;;;;;;20.08;9.98;;;;;;;-145.63;54.21;39249.16;5141570;27;20101;-64
2024/03/19 09:32:22;;;;;;;13.85;8.98;;;;;;;-145.63;53.93;39280.44;5136139;27;20042;-64
2024/03/19 09:34:48;;;;;;;20.17;10.27;;;;;;;-145.63;54.10;39290.22;5114725;27;20028;-63
2024/03/19 09:37:15;;;;;;;14.50;9.77;;;;;;;-145.63;54.50;39255.00;5121735;27;20038;-65
2024/03/19 09:39:41;;;;;;;20.35;10.52;;;;;;;-145.63;53.64;39292.19;5127883;27;20038;-65
2024/03/19 09:42:13;;;;;;;15.45;8.65;;;;;;;-145.63;53.92;39294.13;5123786;27;20027;-63
2024/03/19 09:44:42;;;;;;;15.68;9.75;;;;;;;-145.63;54.46;39241.31;5113096;28;20035;-66
2024/03/19 09:47:09;;;;;;;17.75;8.90;;;;;;;-145.63;53.73;39272.63;5114565;27;20035;-63
2024/03/19 09:49:36;;;;;;;22.70;9.75;;;;;;;-145.63;53.80;39247.19;5133830;27;20117;-64
2024/03/19 09:52:03;;;;;;;22.42;10.20;;;;;;;-145.63;54.74;39274.56;5113212;28;20035;-65
2024/03/19 09:54:29;;;;;;;15.27;8.25;;;;;;;-145.63;55.50;39256.97;5125708;27;20042;-63
2024/03/19 09:56:57;;;;;;;16.05;8.23;;;;;;;-145.63;54.71;39258.94;5125212;27;20023;-65
2024/03/19 09:59:25;;;;;;;15.75;8.48;;;;;;;-145.63;54.50;39327.38;5116610;27;20416;-65
2024/03/19 10:01:53;;;;;;;14.48;9.27;;;;;;;-145.63;54.14;39280.44;5132961;27;20019;-64
2024/03/19 10:04:19;;;;;;;16.77;9.15;;;;;;;-145.63;54.34;39255.00;5133379;27;20074;-64
2024/03/19 10:06:45;;;;;;;14.90;8.93;;;;;;;-145.63;53.70;39266.75;5118317;27;20059;-63
2024/03/19 10:09:11;;;;;;;15.25;8.55;;;;;;;-145.63;53.18;39282.41;5112439;28;20035;-64
2024/03/19 10:11:37;;;;;;;16.05;9.90;;;;;;;-145.63;52.98;39282.41;5118032;27;20030;-63
2024/03/19 10:14:05;;;;;;;17.10;9.85;;;;;;;-145.63;53.38;39223.72;5117992;27;20111;-64
2024/03/19 10:16:31;;;;;;;14.65;9.38;;;;;;;-145.63;53.49;39270.66;5133371;27;20023;-64
2024/03/19 10:18:57;;;;;;;16.55;10.38;;;;;;;-145.63;53.19;39239.38;5116699;28;20035;-64
2024/03/19 10:21:23;;;;;;;14.73;10.23;;;;;;;-145.63;53.17;39296.09;5116306;27;20119;-66
2024/03/19 10:23:49;;;;;;;15.85;8.98;;;;;;;-145.63;53.23;39262.84;5119606;28;20086;-63
2024/03/19 10:26:16;;;;;;;18.00;10.82;;;;;;;-145.63;52.41;39276.53;5131808;28;20030;-65
2024/03/19 10:28:43;;;;;;;15.13;9.93;;;;;;;-145.63;52.61;39243.28;5132185;28;20024;-65
2024/03/19 10:31:12;;;;;;;14.82;9.30;;;;;;;-145.63;53.17;39251.09;5121563;28;20127;-63
2024/03/19 10:33:37;;;;;;;13.55;9.07;;;;;;;-145.63;52.83;39251.09;5131411;28;20024;-64
2024/03/19 10:36:04;;;;;;;16.50;9.68;;;;;;;-145.63;53.62;39243.28;5132495;28;20080;-64
2024/03/19 10:38:30;;;;;;;16.52;9.65;;;;;;;-145.63;52.92;39266.75;5130442;28;20054;-64
2024/03/19 10:40:59;;;;;;;16.17;9.30;;;;;;;-145.63;52.06;39274.56;5122974;28;20027;-64
2024/03/19 10:43:27;;;;;;;17.23;9.45;;;;;;;-145.63;51.87;39280.44;5133152;28;20045;-64
2024/03/19 10:45:53;;;;;;;14.07;9.48;;;;;;;-145.63;52.19;39270.66;5125781;28;20151;-64
2024/03/19 10:48:19;;;;;;;17.98;9.93;;;;;;;-145.63;51.63;39264.78;5123505;28;20433;-65
2024/03/19 10:50:50;;;;;;;18.23;9.57;;;;;;;-145.63;52.18;39348.88;5125816;28;20104;-65
2024/03/19 10:53:27;;;;;;;13.80;9.85;;;;;;;-145.63;51.46;39247.19;5133013;28;20027;-63
2024/03/19 10:55:58;;;;;;;16.73;8.57;;;;;;;-145.63;51.52;39020.34;5109557;28;20027;-63
2024/03/19 10:58:25;;;;;;;16.83;9.88;;;;;;;-145.63;52.33;39260.88;5132562;28;20027;-64